createdAt,value
2017-11-09T00:01:02.601Z,101719.91
2017-11-09T00:03:30.198Z,101720.25
2017-11-09T00:06:03.258Z,101721.41
2017-11-09T00:08:30.867Z,101716.67
2017-11-09T00:10:58.438Z,101718.80
2017-11-09T00:13:26.916Z,101722.38
2017-11-09T00:15:54.525Z,101717.75
2017-11-09T00:18:22.128Z,101716.70
2017-11-09T00:20:49.720Z,101715.50
2017-11-09T00:23:17.338Z,101717.92
2017-11-09T00:25:44.967Z,101718.13
2017-11-09T00:28:12.539Z,101719.41
2017-11-09T00:30:40.121Z,101722.38
2017-11-09T00:33:07.691Z,101719.41
2017-11-09T00:35:35.255Z,101720.50
2017-11-09T00:38:02.831Z,101725.21
2017-11-09T00:40:30.436Z,101719.83
2017-11-09T00:42:58.014Z,101709.73
2017-11-09T00:45:25.590Z,101713.50
2017-11-09T00:47:53.154Z,101714.33
2017-11-09T00:50:20.731Z,101715.33
2017-11-09T00:52:48.337Z,101716.20
2017-11-09T00:55:15.905Z,101713.60
2017-11-09T00:57:43.483Z,101715.92
2017-11-09T01:00:11.094Z,101710.20
2017-11-09T01:02:38.667Z,101707.24
2017-11-09T01:05:06.234Z,101708.56
2017-11-09T01:07:33.806Z,101711.13
2017-11-09T01:10:01.410Z,101716.65
2017-11-09T01:12:28.985Z,101714.15
2017-11-09T01:14:56.550Z,101704.97
2017-11-09T01:17:24.165Z,101702.97
2017-11-09T01:19:51.736Z,101709.47
2017-11-09T01:22:19.308Z,101704.92
2017-11-09T01:24:46.878Z,101699.37
2017-11-09T01:27:14.454Z,101704.87
2017-11-09T01:29:42.019Z,101701.48
2017-11-09T01:32:09.586Z,101693.65
2017-11-09T01:34:37.164Z,101695.72
2017-11-09T01:37:04.771Z,101695.52
2017-11-09T01:39:32.327Z,101701.84
2017-11-09T01:41:59.894Z,101703.17
2017-11-09T01:44:27.465Z,101703.55
2017-11-09T01:46:55.042Z,101702.87
2017-11-09T01:49:22.650Z,101701.74
2017-11-09T01:51:50.271Z,101701.28
2017-11-09T01:54:17.830Z,101701.88
2017-11-09T01:56:45.398Z,101700.89
2017-11-09T01:59:12.964Z,101706.44
2017-11-09T02:01:40.652Z,101701.45
2017-11-09T02:04:08.234Z,101700.16
2017-11-09T02:06:35.880Z,101696.64
2017-11-09T02:09:03.457Z,101702.11
2017-11-09T02:11:31.031Z,101702.19
2017-11-09T02:13:58.632Z,101700.97
2017-11-09T02:16:26.208Z,101701.54
2017-11-09T02:18:53.778Z,101708.08
2017-11-09T02:21:21.347Z,101702.97
2017-11-09T02:23:48.968Z,101705.61
2017-11-09T02:26:16.578Z,101700.91
2017-11-09T02:28:44.143Z,101700.81
2017-11-09T02:31:11.706Z,101696.50
2017-11-09T02:33:39.272Z,101698.02
2017-11-09T02:36:06.834Z,101700.28
2017-11-09T02:38:34.456Z,101699.34
2017-11-09T02:41:02.024Z,101696.13
2017-11-09T02:43:29.592Z,101696.97
2017-11-09T02:45:57.168Z,101698.53
2017-11-09T02:48:24.731Z,101705.48
2017-11-09T02:50:52.329Z,101701.02
2017-11-09T02:53:19.901Z,101696.13
2017-11-09T02:55:48.196Z,101701.38
2017-11-09T02:58:16.527Z,101703.78
2017-11-09T03:00:44.875Z,101699.61
2017-11-09T03:03:12.440Z,101704.97
2017-11-09T03:05:40.934Z,101707.49
2017-11-09T03:08:08.547Z,101707.13
2017-11-09T03:10:36.114Z,101704.77
2017-11-09T03:13:03.673Z,101705.97
2017-11-09T03:15:31.235Z,101702.09
2017-11-09T03:17:59.571Z,101698.31
2017-11-09T03:20:27.166Z,101697.81
2017-11-09T03:22:54.738Z,101698.79
2017-11-09T03:25:23.200Z,101699.41
2017-11-09T03:27:50.768Z,101699.36
2017-11-09T03:30:19.307Z,101698.56
2017-11-09T03:32:46.895Z,101701.28
2017-11-09T03:35:15.268Z,101698.44
2017-11-09T03:37:42.853Z,101704.99
2017-11-09T03:40:10.420Z,101700.94
2017-11-09T03:42:38.021Z,101702.06
2017-11-09T03:45:05.590Z,101702.12
2017-11-09T03:47:33.154Z,101708.14
2017-11-09T03:50:01.423Z,101710.38
2017-11-09T03:52:29.011Z,101705.05
2017-11-09T03:54:56.574Z,101710.70
2017-11-09T03:57:24.145Z,101708.82
2017-11-09T03:59:51.758Z,101701.58
2017-11-09T04:02:19.318Z,101702.16
2017-11-09T04:04:46.885Z,101701.78
2017-11-09T04:07:19.121Z,101699.56
2017-11-09T04:09:47.616Z,101698.66
2017-11-09T04:12:15.183Z,101699.19
2017-11-09T04:14:42.787Z,101696.09
2017-11-09T04:17:10.363Z,101704.67
2017-11-09T04:19:37.929Z,101701.56
2017-11-09T04:22:05.494Z,101695.86
2017-11-09T04:24:33.059Z,101698.34
2017-11-09T04:27:00.680Z,101696.77
2017-11-09T04:29:28.257Z,101691.18
2017-11-09T04:31:56.621Z,101697.86
2017-11-09T04:34:24.188Z,101695.78
2017-11-09T04:36:51.757Z,101700.20
2017-11-09T04:39:19.329Z,101701.53
2017-11-09T04:41:46.898Z,101704.45
2017-11-09T04:44:15.392Z,101706.45
2017-11-09T04:46:42.955Z,101706.06
2017-11-09T04:49:11.510Z,101702.09
2017-11-09T04:51:39.081Z,101704.77
2017-11-09T04:54:06.657Z,101707.52
2017-11-09T04:56:35.124Z,101716.22
2017-11-09T04:59:03.615Z,101715.64
2017-11-09T05:01:31.214Z,101723.28
2017-11-09T05:03:58.788Z,101722.83
2017-11-09T05:06:27.215Z,101727.23
2017-11-09T05:08:54.801Z,101732.91
2017-11-09T05:11:22.410Z,101733.73
2017-11-09T05:13:50.923Z,101731.13
2017-11-09T05:16:19.311Z,101734.97
2017-11-09T05:18:47.758Z,101736.42
2017-11-09T05:21:16.135Z,101733.26
2017-11-09T05:23:43.706Z,101730.38
2017-11-09T05:26:12.203Z,101730.23
2017-11-09T05:28:39.781Z,101734.70
2017-11-09T05:31:08.265Z,101734.77
2017-11-09T05:33:35.910Z,101733.70
2017-11-09T05:36:04.327Z,101730.38
2017-11-09T05:38:32.671Z,101738.09
2017-11-09T05:41:01.007Z,101737.43
2017-11-09T05:43:28.571Z,101736.67
2017-11-09T05:45:56.159Z,101732.89
2017-11-09T05:48:23.778Z,101735.13
2017-11-09T05:50:51.397Z,101739.88
2017-11-09T05:53:18.971Z,101741.30
2017-11-09T05:55:46.582Z,101741.38
2017-11-09T05:58:14.151Z,101737.06
2017-11-09T06:00:41.719Z,101739.69
2017-11-09T06:03:09.295Z,101734.44
2017-11-09T06:05:36.871Z,101736.27
2017-11-09T06:08:04.443Z,101733.69
2017-11-09T06:10:32.013Z,101733.06
2017-11-09T06:13:00.318Z,101724.14
2017-11-09T06:15:27.900Z,101733.26
2017-11-09T06:17:56.359Z,101733.70
2017-11-09T06:20:24.791Z,101739.22
2017-11-09T06:22:53.163Z,101740.54
2017-11-09T06:25:20.727Z,101746.95
2017-11-09T06:27:49.002Z,101740.91
2017-11-09T06:30:17.261Z,101741.10
2017-11-09T06:32:44.840Z,101747.94
2017-11-09T06:35:12.441Z,101739.74
2017-11-09T06:37:40.108Z,101742.34
2017-11-09T06:40:08.468Z,101741.41
2017-11-09T06:42:36.043Z,101738.46
2017-11-09T06:45:03.706Z,101748.61
2017-11-09T06:47:31.267Z,101747.56
2017-11-09T06:49:59.366Z,101748.98
2017-11-09T06:52:26.967Z,101749.04
2017-11-09T06:54:55.455Z,101750.34
2017-11-09T06:57:23.065Z,101747.14
2017-11-09T06:59:50.643Z,101747.82
2017-11-09T07:02:19.111Z,101749.13
2017-11-09T07:04:46.676Z,101756.05
2017-11-09T07:07:14.247Z,101765.98
2017-11-09T07:09:41.834Z,101766.71
2017-11-09T07:12:09.396Z,101769.02
2017-11-09T07:14:37.062Z,101771.55
2017-11-09T07:17:04.634Z,101771.02
2017-11-09T07:19:32.202Z,101771.42
2017-11-09T07:21:59.778Z,101775.35
2017-11-09T07:24:27.358Z,101780.02
2017-11-09T07:26:55.635Z,101781.37
2017-11-09T07:29:23.203Z,101779.11
2017-11-09T07:31:50.810Z,101781.95
2017-11-09T07:34:18.375Z,101785.52
2017-11-09T07:36:46.737Z,101781.27
2017-11-09T07:39:14.310Z,101780.80
2017-11-09T07:41:42.794Z,101776.87
2017-11-09T07:44:10.367Z,101778.42
2017-11-09T07:46:37.935Z,101777.92
2017-11-09T07:51:27.555Z,101776.59
2017-11-09T07:53:55.124Z,101775.61
2017-11-09T07:56:22.696Z,101773.11
2017-11-09T07:58:50.278Z,101773.84
2017-11-09T08:01:17.844Z,101771.13
2017-11-09T08:03:45.459Z,101777.16
2017-11-09T08:06:13.027Z,101784.05
2017-11-09T08:08:40.594Z,101787.42
2017-11-09T08:11:08.163Z,101785.08
2017-11-09T08:13:35.729Z,101783.22
2017-11-09T08:16:03.340Z,101777.66
2017-11-09T08:18:31.278Z,101774.63
2017-11-09T08:20:58.879Z,101777.04
2017-11-09T08:23:26.453Z,101778.19
2017-11-09T08:25:55.970Z,101780.39
2017-11-09T08:28:27.367Z,101776.85
2017-11-09T08:30:56.178Z,101782.30
2017-11-09T08:33:24.934Z,101775.48
2017-11-09T08:35:53.431Z,101782.52
2017-11-09T08:38:21.040Z,101779.34
2017-11-09T08:40:48.614Z,101776.11
2017-11-09T08:43:16.947Z,101772.84
2017-11-09T08:45:44.514Z,101764.55
2017-11-09T08:48:12.888Z,101769.13
2017-11-09T08:50:40.454Z,101772.30
2017-11-09T08:53:08.835Z,101768.13
2017-11-09T08:55:37.183Z,101767.05
2017-11-09T08:58:04.759Z,101763.39
2017-11-09T09:00:32.335Z,101758.42
2017-11-09T09:03:00.701Z,101760.62
2017-11-09T09:05:28.311Z,101765.14
2017-11-09T09:07:55.884Z,101760.64
2017-11-09T09:10:24.367Z,101755.64
2017-11-09T09:12:52.712Z,101760.50
2017-11-09T09:15:20.311Z,101757.55
2017-11-09T09:17:48.734Z,101754.73
2017-11-09T09:20:16.439Z,101754.92
2017-11-09T09:23:02.619Z,101753.86
2017-11-09T09:25:36.542Z,101754.12
2017-11-09T09:28:04.927Z,101751.97
2017-11-09T09:30:33.281Z,101749.20
2017-11-09T09:33:04.702Z,101752.34
2017-11-09T09:35:32.994Z,101748.59
2017-11-09T09:38:01.755Z,101751.68
2017-11-09T09:40:30.498Z,101751.95
2017-11-09T09:42:58.997Z,101752.88
2017-11-09T09:45:26.566Z,101752.58
2017-11-09T09:47:54.132Z,101747.16
2017-11-09T09:50:21.730Z,101746.42
2017-11-09T09:52:50.213Z,101740.17
2017-11-09T09:55:18.516Z,101745.19
2017-11-09T09:57:47.006Z,101738.76
2017-11-09T10:00:14.627Z,101749.49
2017-11-09T10:02:42.883Z,101744.47
2017-11-09T10:05:11.254Z,101746.25
2017-11-09T10:07:38.833Z,101749.41
2017-11-09T10:10:07.191Z,101738.38
2017-11-09T10:12:34.798Z,101739.52
2017-11-09T10:15:03.011Z,101742.05
2017-11-09T10:17:31.492Z,101731.71
2017-11-09T10:19:59.891Z,101733.47
2017-11-09T10:22:27.464Z,101738.17
2017-11-09T10:24:55.810Z,101733.25
2017-11-09T10:27:23.380Z,101728.95
2017-11-09T10:29:51.885Z,101732.14
2017-11-09T10:32:19.449Z,101728.47
2017-11-09T10:34:48.001Z,101730.14
2017-11-09T10:37:15.616Z,101730.89
2017-11-09T10:39:43.191Z,101728.45
2017-11-09T10:42:10.807Z,101723.94
2017-11-09T10:44:39.076Z,101727.27
2017-11-09T10:47:07.463Z,101720.42
2017-11-09T10:49:35.843Z,101723.60
2017-11-09T10:52:04.187Z,101726.19
2017-11-09T10:54:32.536Z,101724.80
2017-11-09T10:57:00.160Z,101727.19
2017-11-09T11:02:08.605Z,101722.17
2017-11-09T11:04:36.971Z,101717.86
2017-11-09T11:07:05.247Z,101715.31
2017-11-09T11:09:33.594Z,101711.42
2017-11-09T11:12:01.991Z,101708.80
2017-11-09T11:14:30.718Z,101711.98
2017-11-09T11:16:58.293Z,101710.66
2017-11-09T11:19:25.860Z,101712.63
2017-11-09T11:21:53.463Z,101710.63
2017-11-09T11:24:21.033Z,101708.91
2017-11-09T11:26:48.600Z,101705.66
2017-11-09T11:29:16.165Z,101704.78
2017-11-09T11:31:43.748Z,101707.02
2017-11-09T11:34:11.363Z,101703.48
2017-11-09T11:36:38.931Z,101703.53
2017-11-09T11:39:06.503Z,101708.91
2017-11-09T11:41:34.081Z,101711.56
2017-11-09T11:44:01.652Z,101709.89
2017-11-09T11:46:29.218Z,101704.94
2017-11-09T11:48:56.790Z,101723.50
2017-11-09T11:51:24.358Z,101716.95
2017-11-09T11:53:52.658Z,101709.01
2017-11-09T11:56:20.226Z,101703.73
2017-11-09T11:58:48.706Z,101705.58
2017-11-09T12:01:16.283Z,101700.66
2017-11-09T12:03:46.679Z,101698.09
2017-11-09T12:06:14.263Z,101700.77
2017-11-09T12:08:41.835Z,101700.02
2017-11-09T12:11:09.408Z,101701.99
2017-11-09T12:13:38.005Z,101705.47
2017-11-09T12:16:05.575Z,101703.85
2017-11-09T12:18:33.142Z,101704.13
2017-11-09T12:21:00.749Z,101710.66
2017-11-09T12:23:29.229Z,101710.98
2017-11-09T12:25:56.790Z,101713.05
2017-11-09T12:28:26.166Z,101716.74
2017-11-09T12:30:53.740Z,101714.78
2017-11-09T12:33:21.308Z,101714.87
2017-11-09T12:35:48.878Z,101707.68
2017-11-09T12:38:16.438Z,101710.73
2017-11-09T12:40:44.000Z,101703.47
2017-11-09T12:43:11.583Z,101705.78
2017-11-09T12:45:39.167Z,101711.10
2017-11-09T12:48:06.735Z,101717.91
2017-11-09T12:50:34.353Z,101711.50
2017-11-09T12:53:01.919Z,101717.58
2017-11-09T12:55:29.503Z,101714.30
2017-11-09T12:57:57.935Z,101718.02
2017-11-09T13:00:25.507Z,101716.19
2017-11-09T13:02:53.108Z,101715.69
2017-11-09T13:05:20.671Z,101712.72
2017-11-09T13:07:49.099Z,101706.58
2017-11-09T13:10:17.555Z,101710.31
2017-11-09T13:12:45.119Z,101715.20
2017-11-09T13:15:13.596Z,101718.27
2017-11-09T13:17:41.946Z,101720.39
2017-11-09T13:20:09.523Z,101715.13
2017-11-09T13:22:37.102Z,101717.80
2017-11-09T13:25:05.459Z,101712.38
2017-11-09T13:27:33.042Z,101714.23
2017-11-09T13:30:01.571Z,101704.17
2017-11-09T13:32:29.142Z,101706.95
2017-11-09T13:34:57.623Z,101710.88
2017-11-09T13:37:25.187Z,101704.57
2017-11-09T13:39:53.653Z,101701.79
2017-11-09T13:42:22.212Z,101703.29
2017-11-09T13:44:50.713Z,101703.98
2017-11-09T13:47:18.289Z,101701.66
2017-11-09T13:49:46.695Z,101699.77
2017-11-09T13:52:14.262Z,101698.23
2017-11-09T13:54:42.802Z,101697.84
2017-11-09T13:57:11.158Z,101695.28
2017-11-09T13:59:38.903Z,101699.75
2017-11-09T14:02:07.258Z,101697.98
2017-11-09T14:04:34.831Z,101701.77
2017-11-09T14:07:03.346Z,101703.97
2017-11-09T14:09:30.944Z,101697.16
2017-11-09T14:11:59.366Z,101700.19
2017-11-09T14:14:26.983Z,101702.55
2017-11-09T14:16:55.295Z,101700.56
2017-11-09T14:19:22.874Z,101699.91
2017-11-09T14:21:51.347Z,101693.53
2017-11-09T14:24:18.965Z,101688.41
2017-11-09T14:26:46.532Z,101690.48
2017-11-09T14:29:14.106Z,101694.98
2017-11-09T14:31:42.477Z,101689.16
2017-11-09T14:34:10.857Z,101688.13
2017-11-09T14:36:39.386Z,101686.37
2017-11-09T14:39:07.813Z,101674.59
2017-11-09T14:41:36.170Z,101666.95
2017-11-09T14:44:04.659Z,101671.66
2017-11-09T14:46:34.964Z,101672.08
2017-11-09T14:49:02.534Z,101671.09
2017-11-09T14:51:30.107Z,101671.87
2017-11-09T14:53:57.681Z,101671.21
2017-11-09T14:56:25.255Z,101667.50
2017-11-09T14:58:52.839Z,101671.52
2017-11-09T15:01:20.411Z,101672.40
2017-11-09T15:03:48.033Z,101680.45
2017-11-09T15:06:15.609Z,101684.00
2017-11-09T15:08:43.979Z,101689.52
2017-11-09T15:11:11.562Z,101685.02
2017-11-09T15:13:39.841Z,101689.16
2017-11-09T15:16:07.419Z,101678.95
2017-11-09T15:18:35.063Z,101671.63
2017-11-09T15:23:29.154Z,101677.42
2017-11-09T15:25:56.728Z,101680.95
2017-11-09T15:28:24.328Z,101679.89
2017-11-09T15:30:51.906Z,101681.31
2017-11-09T15:33:19.481Z,101683.88
2017-11-09T15:35:53.831Z,101682.83
2017-11-09T15:38:22.359Z,101691.66
2017-11-09T15:40:50.826Z,101687.82
2017-11-09T15:43:18.452Z,101683.14
2017-11-09T15:45:46.922Z,101680.64
2017-11-09T15:48:15.202Z,101686.73
2017-11-09T15:50:43.572Z,101684.64
2017-11-09T15:53:11.140Z,101693.12
2017-11-09T15:55:38.708Z,101693.45
2017-11-09T15:58:06.275Z,101690.30
2017-11-09T16:00:34.717Z,101697.33
2017-11-09T16:03:02.288Z,101701.58
2017-11-09T16:05:29.875Z,101695.50
2017-11-09T16:08:12.986Z,101698.08
2017-11-09T16:10:43.767Z,101696.92
2017-11-09T16:13:11.395Z,101694.87
2017-11-09T16:15:39.744Z,101688.58
2017-11-09T16:18:07.339Z,101686.06
2017-11-09T16:20:38.324Z,101682.36
2017-11-09T16:23:06.686Z,101678.05
2017-11-09T16:25:34.302Z,101680.89
2017-11-09T16:28:04.760Z,101682.11
2017-11-09T16:30:33.129Z,101679.55
2017-11-09T16:33:01.516Z,101682.56
2017-11-09T16:35:29.894Z,101676.12
2017-11-09T16:37:57.504Z,101688.80
2017-11-09T16:40:25.119Z,101686.14
2017-11-09T16:42:52.690Z,101675.73
2017-11-09T16:45:20.270Z,101679.61
2017-11-09T16:47:47.843Z,101677.73
2017-11-09T16:50:15.531Z,101685.67
2017-11-09T16:52:45.445Z,101680.78
2017-11-09T16:55:13.027Z,101672.94
2017-11-09T16:57:42.436Z,101674.16
2017-11-09T17:00:10.016Z,101674.95
2017-11-09T17:02:38.314Z,101669.91
2017-11-09T17:05:05.930Z,101661.68
2017-11-09T17:07:34.115Z,101662.16
2017-11-09T17:10:01.719Z,101657.37
2017-11-09T17:12:30.066Z,101644.59
2017-11-09T17:15:02.325Z,101643.30
2017-11-09T17:17:30.675Z,101635.13
2017-11-09T17:19:58.290Z,101631.02
2017-11-09T17:22:26.757Z,101632.11
2017-11-09T17:24:55.103Z,101621.56
2017-11-09T17:27:22.682Z,101609.10
2017-11-09T17:29:51.059Z,101601.31
2017-11-09T17:32:19.470Z,101605.05
2017-11-09T17:34:47.039Z,101612.56
2017-11-09T17:37:15.315Z,101613.63
2017-11-09T17:39:42.900Z,101624.59
2017-11-09T17:42:16.211Z,101615.56
2017-11-09T17:44:43.791Z,101617.10
2017-11-09T17:47:11.363Z,101616.17
2017-11-09T17:49:38.927Z,101614.37
2017-11-09T17:52:09.482Z,101624.25
2017-11-09T17:54:37.060Z,101624.08
2017-11-09T17:57:04.635Z,101619.81
2017-11-09T18:02:29.194Z,101608.36
2017-11-09T18:04:56.813Z,101598.77
2017-11-09T18:07:24.428Z,101604.30
2017-11-09T18:09:52.013Z,101601.28
2017-11-09T18:12:20.420Z,101600.54
2017-11-09T18:14:48.935Z,101596.63
2017-11-09T18:17:16.685Z,101599.84
2017-11-09T18:19:45.198Z,101614.17
2017-11-09T18:22:12.761Z,101611.78
2017-11-09T18:24:40.358Z,101602.80
2017-11-09T18:27:08.737Z,101603.67
2017-11-09T18:29:36.569Z,101599.75
2017-11-09T18:32:04.185Z,101597.92
2017-11-09T18:34:32.694Z,101608.12
2017-11-09T18:37:01.008Z,101608.36
2017-11-09T18:39:28.631Z,101614.28
2017-11-09T18:41:56.938Z,101613.51
2017-11-09T18:44:24.623Z,101615.52
2017-11-09T18:46:52.244Z,101619.14
2017-11-09T18:49:19.823Z,101628.05
2017-11-09T18:51:47.400Z,101625.60
2017-11-09T18:54:15.031Z,101623.45
2017-11-09T18:56:42.722Z,101626.13
2017-11-09T18:59:17.586Z,101624.51
2017-11-09T19:01:45.154Z,101622.97
2017-11-09T19:04:12.887Z,101609.94
2017-11-09T19:06:40.457Z,101602.13
2017-11-09T19:09:08.962Z,101600.22
2017-11-09T19:11:36.539Z,101615.06
2017-11-09T19:14:04.934Z,101606.37
2017-11-09T19:16:33.509Z,101594.73
2017-11-09T19:19:01.907Z,101600.33
2017-11-09T19:21:30.304Z,101598.16
2017-11-09T19:23:57.902Z,101601.27
2017-11-09T19:26:25.736Z,101598.56
2017-11-09T19:28:54.222Z,101604.77
2017-11-09T19:31:22.716Z,101600.64
2017-11-09T19:33:51.142Z,101608.72
2017-11-09T19:36:19.571Z,101605.59
2017-11-09T19:38:48.172Z,101602.81
2017-11-09T19:41:15.872Z,101603.95
2017-11-09T19:43:43.471Z,101600.90
2017-11-09T19:46:11.056Z,101598.58
2017-11-09T19:48:38.644Z,101602.77
2017-11-09T19:51:06.269Z,101594.86
2017-11-09T19:53:34.899Z,101602.47
2017-11-09T19:56:03.404Z,101604.95
2017-11-09T19:58:32.857Z,101605.83
2017-11-09T20:01:00.563Z,101603.59
2017-11-09T20:03:28.151Z,101611.95
2017-11-09T20:05:56.664Z,101603.60
2017-11-09T20:08:25.051Z,101610.56
2017-11-09T20:10:54.077Z,101597.84
2017-11-09T20:13:21.656Z,101593.69
2017-11-09T20:15:49.341Z,101599.27
2017-11-09T20:18:17.838Z,101598.59
2017-11-09T20:20:45.748Z,101606.94
2017-11-09T20:23:13.317Z,101597.39
2017-11-09T20:25:40.924Z,101592.55
2017-11-09T20:28:08.507Z,101592.97
2017-11-09T20:30:36.089Z,101598.92
2017-11-09T20:33:04.594Z,101592.19
2017-11-09T20:35:32.164Z,101592.84
2017-11-09T20:38:00.651Z,101588.59
2017-11-09T20:40:28.504Z,101581.12
2017-11-09T20:42:56.082Z,101586.72
2017-11-09T20:45:23.663Z,101567.65
2017-11-09T20:47:52.141Z,101569.52
2017-11-09T20:50:21.495Z,101562.01
2017-11-09T20:52:50.079Z,101558.17
2017-11-09T20:55:17.774Z,101550.48
2017-11-09T20:57:45.423Z,101552.76
2017-11-09T21:00:13.120Z,101547.62
2017-11-09T21:02:41.394Z,101548.20
2017-11-09T21:05:09.119Z,101545.02
2017-11-09T21:07:36.707Z,101528.65
2017-11-09T21:10:04.287Z,101527.23
2017-11-09T21:12:31.903Z,101529.48
2017-11-09T21:15:00.409Z,101520.80
2017-11-09T21:17:28.452Z,101521.33
2017-11-09T21:19:56.127Z,101512.53
2017-11-09T21:22:23.695Z,101506.92
2017-11-09T21:24:51.315Z,101504.17
2017-11-09T21:27:20.082Z,101504.17
2017-11-09T21:29:49.783Z,101495.56
2017-11-09T21:32:17.706Z,101497.20
2017-11-09T21:34:45.772Z,101497.36
2017-11-09T21:37:13.344Z,101493.84
2017-11-09T21:39:41.858Z,101491.44
2017-11-09T21:42:10.399Z,101492.75
2017-11-09T21:44:38.584Z,101491.50
2017-11-09T21:47:06.173Z,101498.05
2017-11-09T21:49:33.738Z,101493.84
2017-11-09T21:52:01.317Z,101499.91
2017-11-09T21:54:29.243Z,101493.44
2017-11-09T21:56:57.612Z,101504.14
2017-11-09T21:59:25.989Z,101502.75
2017-11-09T22:01:53.776Z,101496.30
2017-11-09T22:04:21.363Z,101492.58
2017-11-09T22:06:48.981Z,101490.14
2017-11-09T22:09:16.555Z,101490.51
2017-11-09T22:11:44.222Z,101484.47
2017-11-09T22:14:11.807Z,101485.80
2017-11-09T22:16:39.495Z,101484.77
2017-11-09T22:19:07.169Z,101481.53
2017-11-09T22:21:34.777Z,101469.04
2017-11-09T22:24:03.288Z,101480.84
2017-11-09T22:26:31.591Z,101470.19
2017-11-09T22:28:59.194Z,101466.10
2017-11-09T22:31:26.846Z,101465.98
2017-11-09T22:33:54.770Z,101467.48
2017-11-09T22:36:22.348Z,101466.19
2017-11-09T22:38:49.953Z,101463.79
2017-11-09T22:41:17.752Z,101462.47
2017-11-09T22:43:45.373Z,101462.96
2017-11-09T22:46:12.942Z,101466.14
2017-11-09T22:48:40.551Z,101466.58
2017-11-09T22:51:08.948Z,101453.56
2017-11-09T22:53:37.240Z,101446.22
2017-11-09T22:56:04.850Z,101448.80
2017-11-09T22:58:32.421Z,101444.95
2017-11-09T23:01:00.031Z,101442.78
2017-11-09T23:03:28.296Z,101442.34
2017-11-09T23:05:55.911Z,101443.42
2017-11-09T23:08:24.387Z,101438.02
2017-11-09T23:10:51.966Z,101437.83
2017-11-09T23:13:19.578Z,101436.97
2017-11-09T23:15:47.348Z,101454.77
2017-11-09T23:18:14.916Z,101448.09
2017-11-09T23:20:42.475Z,101443.69
2017-11-09T23:23:10.082Z,101442.94
2017-11-09T23:25:37.678Z,101439.20
2017-11-09T23:28:05.252Z,101431.55
2017-11-09T23:30:32.827Z,101426.08
2017-11-09T23:33:00.398Z,101435.98
2017-11-09T23:35:28.030Z,101421.65
2017-11-09T23:37:55.607Z,101419.16
2017-11-09T23:40:23.217Z,101415.05
2017-11-09T23:42:50.782Z,101405.99
2017-11-09T23:45:24.686Z,101400.06
2017-11-09T23:47:52.253Z,101394.44
2017-11-09T23:50:19.838Z,101397.04
2017-11-09T23:52:48.317Z,101392.73
2017-11-09T23:55:15.888Z,101385.48
2017-11-09T23:57:43.455Z,101377.34
